createdAt,value
2023-07-18T00:01:31.036Z,54.78
2023-07-18T00:03:58.702Z,55.24
2023-07-18T00:06:26.260Z,55.35
2023-07-18T00:08:53.751Z,55.59
2023-07-18T00:11:23.634Z,55.69
2023-07-18T00:13:51.390Z,55.47
2023-07-18T00:16:19.150Z,55.56
2023-07-18T00:18:46.787Z,55.74
2023-07-18T00:21:14.356Z,55.75
2023-07-18T00:23:41.647Z,55.96
2023-07-18T00:26:09.935Z,56.14
2023-07-18T00:28:39.080Z,56.18
2023-07-18T00:31:06.911Z,55.99
2023-07-18T00:33:34.248Z,56.18
2023-07-18T00:36:01.683Z,56.33
2023-07-18T00:38:29.291Z,56.37
2023-07-18T00:40:56.626Z,56.35
2023-07-18T00:43:24.019Z,56.40
2023-07-18T00:45:52.420Z,56.31
2023-07-18T00:48:19.739Z,56.54
2023-07-18T00:50:48.914Z,56.66
2023-07-18T00:53:16.473Z,56.62
2023-07-18T00:55:44.369Z,56.74
2023-07-18T00:58:11.984Z,56.80
2023-07-18T01:00:39.545Z,56.91
2023-07-18T01:03:10.955Z,56.95
2023-07-18T01:05:39.061Z,56.95
2023-07-18T01:08:06.517Z,56.99
2023-07-18T01:10:33.854Z,57.11
2023-07-18T01:13:02.176Z,56.96
2023-07-18T01:15:34.852Z,57.20
2023-07-18T01:18:08.398Z,57.21
2023-07-18T01:20:37.517Z,57.03
2023-07-18T01:23:05.517Z,57.19
2023-07-18T01:25:38.143Z,57.05
2023-07-18T01:28:07.815Z,56.63
2023-07-18T01:30:35.541Z,57.12
2023-07-18T01:33:04.596Z,57.33
2023-07-18T01:35:32.000Z,57.20
2023-07-18T01:38:00.089Z,56.98
2023-07-18T01:40:28.509Z,56.24
2023-07-18T01:42:58.775Z,56.35
2023-07-18T01:45:29.326Z,56.66
2023-07-18T01:47:58.149Z,56.62
2023-07-18T01:50:25.704Z,56.94
2023-07-18T01:52:53.294Z,57.00
2023-07-18T01:55:21.351Z,56.84
2023-07-18T01:57:50.622Z,57.16
2023-07-18T02:00:20.826Z,57.12
2023-07-18T02:02:51.621Z,57.17
2023-07-18T02:05:22.325Z,57.08
2023-07-18T02:07:50.919Z,57.44
2023-07-18T02:10:23.003Z,57.94
2023-07-18T02:12:52.824Z,57.27
2023-07-18T02:15:22.633Z,57.38
2023-07-18T02:17:50.793Z,57.82
2023-07-18T02:20:19.876Z,57.50
2023-07-18T02:22:47.972Z,57.92
2023-07-18T02:25:19.545Z,57.30
2023-07-18T02:27:47.705Z,56.95
2023-07-18T02:30:16.214Z,56.69
2023-07-18T02:32:45.065Z,56.68
2023-07-18T02:35:20.510Z,56.98
2023-07-18T02:37:48.868Z,57.18
2023-07-18T02:40:20.293Z,57.22
2023-07-18T02:42:47.909Z,57.21
2023-07-18T02:45:16.137Z,57.21
2023-07-18T02:47:44.433Z,57.10
2023-07-18T02:50:11.928Z,56.94
2023-07-18T02:52:40.433Z,56.57
2023-07-18T02:55:09.556Z,56.67
2023-07-18T02:57:37.376Z,56.34
2023-07-18T03:00:12.483Z,55.51
2023-07-18T03:02:40.076Z,55.30
2023-07-18T03:05:08.649Z,55.27
2023-07-18T03:07:35.975Z,55.54
2023-07-18T03:10:08.122Z,55.21
2023-07-18T03:12:35.509Z,55.93
2023-07-18T03:15:03.630Z,55.44
2023-07-18T03:17:34.132Z,55.71
2023-07-18T03:20:01.644Z,55.55
2023-07-18T03:22:30.825Z,55.49
2023-07-18T03:25:06.738Z,54.75
2023-07-18T03:27:34.191Z,55.00
2023-07-18T03:30:01.330Z,54.67
2023-07-18T03:32:31.292Z,55.02
2023-07-18T03:34:58.986Z,54.63
2023-07-18T03:37:31.491Z,54.87
2023-07-18T03:39:58.859Z,54.20
2023-07-18T03:42:26.224Z,53.81
2023-07-18T03:44:54.188Z,53.42
2023-07-18T03:47:22.845Z,53.38
2023-07-18T03:49:51.453Z,53.92
2023-07-18T03:52:18.761Z,53.99
2023-07-18T03:54:48.416Z,54.30
2023-07-18T03:57:16.107Z,54.44
2023-07-18T03:59:43.455Z,54.28
2023-07-18T04:02:11.159Z,55.43
2023-07-18T04:04:39.720Z,55.90
2023-07-18T04:07:07.591Z,56.33
2023-07-18T04:09:36.015Z,56.22
2023-07-18T04:12:03.623Z,55.42
2023-07-18T04:14:31.318Z,54.48
2023-07-18T04:16:59.903Z,54.29
2023-07-18T04:19:27.589Z,54.37
2023-07-18T04:21:54.966Z,54.44
2023-07-18T04:24:22.739Z,54.52
2023-07-18T04:26:50.150Z,53.94
2023-07-18T04:29:18.134Z,54.27
2023-07-18T04:31:45.959Z,53.22
2023-07-18T04:34:13.353Z,52.68
2023-07-18T04:36:40.667Z,52.44
2023-07-18T04:39:07.996Z,52.23
2023-07-18T04:41:49.472Z,52.11
2023-07-18T04:44:22.220Z,51.93
2023-07-18T04:46:49.826Z,52.10
2023-07-18T04:49:17.713Z,51.88
2023-07-18T04:51:45.310Z,51.94
2023-07-18T04:54:13.636Z,51.71
2023-07-18T04:56:41.329Z,51.05
2023-07-18T04:59:08.796Z,51.18
2023-07-18T05:01:38.165Z,51.09
2023-07-18T05:04:05.774Z,50.79
2023-07-18T05:06:38.373Z,50.46
2023-07-18T05:09:06.979Z,50.35
2023-07-18T05:11:35.563Z,50.30
2023-07-18T05:14:03.556Z,50.41
2023-07-18T05:16:31.664Z,50.44
2023-07-18T05:19:00.282Z,50.29
2023-07-18T05:21:27.564Z,49.88
2023-07-18T05:23:54.886Z,49.69
2023-07-18T05:26:22.826Z,49.78
2023-07-18T05:28:50.064Z,50.00
2023-07-18T05:31:18.618Z,49.92
2023-07-18T05:33:46.298Z,49.53
2023-07-18T05:36:14.052Z,49.38
2023-07-18T05:38:41.592Z,49.31
2023-07-18T05:41:08.820Z,49.77
2023-07-18T05:43:36.148Z,49.42
2023-07-18T05:46:03.458Z,49.44
2023-07-18T05:48:31.946Z,49.40
2023-07-18T05:51:01.360Z,49.07
2023-07-18T05:53:28.789Z,49.26
2023-07-18T05:55:56.543Z,48.96
2023-07-18T05:58:24.098Z,48.25
2023-07-18T06:00:51.766Z,48.42
2023-07-18T06:03:22.284Z,47.69
2023-07-18T06:05:58.899Z,47.03
2023-07-18T06:08:26.140Z,46.70
2023-07-18T06:11:00.666Z,45.73
2023-07-18T06:13:28.208Z,45.77
2023-07-18T06:15:55.698Z,46.36
2023-07-18T06:18:23.269Z,46.67
2023-07-18T06:20:51.399Z,46.57
2023-07-18T06:23:19.051Z,45.88
2023-07-18T06:25:46.588Z,46.08
2023-07-18T06:28:13.909Z,45.79
2023-07-18T06:30:41.309Z,45.57
2023-07-18T06:33:08.850Z,45.62
2023-07-18T06:35:36.485Z,45.62
2023-07-18T06:38:03.943Z,45.86
2023-07-18T06:40:31.623Z,46.17
2023-07-18T06:43:00.617Z,46.19
2023-07-18T06:45:28.046Z,46.34
2023-07-18T06:47:56.050Z,46.24
2023-07-18T06:50:23.272Z,45.38
2023-07-18T06:52:52.976Z,45.28
2023-07-18T06:55:20.337Z,45.87
2023-07-18T06:57:47.605Z,46.07
2023-07-18T07:00:15.628Z,44.41
2023-07-18T07:02:43.191Z,44.48
2023-07-18T07:05:10.576Z,44.73
2023-07-18T07:07:38.625Z,44.75
2023-07-18T07:10:10.351Z,45.01
2023-07-18T07:12:38.306Z,44.61
2023-07-18T07:15:06.273Z,45.17
2023-07-18T07:17:37.689Z,45.40
2023-07-18T07:20:13.909Z,45.00
2023-07-18T07:22:45.445Z,45.20
2023-07-18T07:25:14.663Z,44.90
2023-07-18T07:27:45.228Z,44.61
2023-07-18T07:30:19.679Z,44.75
2023-07-18T07:34:23.642Z,44.53
2023-07-18T07:36:51.972Z,43.67
2023-07-18T07:39:19.783Z,43.24
2023-07-18T07:41:47.108Z,42.29
2023-07-18T07:44:14.352Z,42.69
2023-07-18T07:46:42.660Z,42.23
2023-07-18T07:49:11.076Z,42.87
2023-07-18T07:51:39.063Z,42.63
2023-07-18T07:54:06.400Z,41.64
2023-07-18T07:56:33.747Z,41.46
2023-07-18T07:59:11.123Z,41.48
2023-07-18T08:01:39.802Z,41.22
2023-07-18T08:04:09.920Z,41.23
2023-07-18T08:06:37.262Z,41.83
2023-07-18T08:09:04.612Z,41.46
2023-07-18T08:11:32.081Z,41.67
2023-07-18T08:13:59.596Z,42.04
2023-07-18T08:16:28.527Z,41.69
2023-07-18T08:18:56.058Z,41.62
2023-07-18T08:21:23.351Z,41.46
2023-07-18T08:23:51.174Z,40.71
2023-07-18T08:26:18.506Z,41.22
2023-07-18T08:28:45.985Z,41.04
2023-07-18T08:31:13.498Z,41.28
2023-07-18T08:33:40.921Z,41.33
2023-07-18T08:36:09.243Z,41.18
2023-07-18T08:38:36.760Z,40.73
2023-07-18T08:41:05.034Z,41.32
2023-07-18T08:49:08.526Z,40.90
2023-07-18T08:51:36.288Z,40.01
2023-07-18T08:54:05.046Z,39.86
2023-07-18T08:59:20.034Z,39.57
2023-07-18T09:01:51.664Z,39.36
2023-07-18T09:04:20.303Z,39.39
2023-07-18T09:06:50.583Z,39.10
2023-07-18T09:09:19.647Z,39.72
2023-07-18T09:12:04.651Z,39.97
2023-07-18T09:14:34.292Z,40.77
2023-07-18T09:17:09.668Z,40.96
2023-07-18T09:19:50.154Z,39.91
2023-07-18T09:22:20.616Z,39.84
2023-07-18T09:24:49.421Z,38.94
2023-07-18T09:27:19.235Z,38.33
2023-07-18T09:29:49.471Z,38.28
2023-07-18T09:32:22.080Z,37.73
2023-07-18T09:35:00.828Z,37.87
2023-07-18T09:37:47.197Z,38.42
2023-07-18T09:40:19.744Z,38.50
2023-07-18T09:42:49.328Z,38.23
2023-07-18T09:45:18.368Z,38.20
2023-07-18T09:47:45.957Z,38.57
2023-07-18T09:50:15.049Z,38.85
2023-07-18T09:52:53.525Z,39.08
2023-07-18T09:55:26.125Z,38.91
2023-07-18T09:57:56.968Z,39.11
2023-07-18T10:00:26.626Z,38.18
2023-07-18T10:02:56.393Z,38.45
2023-07-18T10:05:24.795Z,39.26
2023-07-18T10:07:52.608Z,39.16
2023-07-18T10:10:20.742Z,37.70
2023-07-18T10:13:02.501Z,37.83
2023-07-18T10:15:30.436Z,38.61
2023-07-18T10:18:18.496Z,38.63
2023-07-18T10:21:02.265Z,39.03
2023-07-18T10:23:43.585Z,38.30
2023-07-18T10:26:11.112Z,38.56
2023-07-18T10:28:46.601Z,37.87
2023-07-18T10:31:31.573Z,38.23
2023-07-18T10:34:10.806Z,38.82
2023-07-18T10:37:02.173Z,37.41
2023-07-18T10:39:51.098Z,38.88
2023-07-18T10:42:27.828Z,38.39
2023-07-18T10:44:58.017Z,37.33
2023-07-18T10:47:26.741Z,38.08
2023-07-18T10:49:54.686Z,38.54
2023-07-18T10:52:22.760Z,37.95
2023-07-18T10:54:57.604Z,37.16
2023-07-18T10:57:34.333Z,37.40
2023-07-18T11:00:04.758Z,38.16
2023-07-18T11:02:40.329Z,38.65
2023-07-18T11:05:15.375Z,38.74
2023-07-18T11:07:49.229Z,38.27
2023-07-18T11:10:17.534Z,38.11
2023-07-18T11:12:44.989Z,38.33
2023-07-18T11:15:13.791Z,37.21
2023-07-18T11:17:43.774Z,38.31
2023-07-18T11:20:13.473Z,37.33
2023-07-18T11:22:42.182Z,37.36
2023-07-18T11:25:11.984Z,37.36
2023-07-18T11:27:39.545Z,37.22
2023-07-18T11:30:10.773Z,37.19
2023-07-18T11:32:46.905Z,38.14
2023-07-18T11:35:20.538Z,37.91
2023-07-18T11:37:53.325Z,37.96
2023-07-18T11:40:27.394Z,38.42
2023-07-18T11:42:57.728Z,38.48
2023-07-18T11:45:29.625Z,38.35
2023-07-18T11:47:59.626Z,38.29
2023-07-18T11:50:30.564Z,37.46
2023-07-18T11:52:59.991Z,37.51
2023-07-18T11:55:27.904Z,37.33
2023-07-18T11:57:57.205Z,37.57
2023-07-18T12:00:24.579Z,37.18
2023-07-18T12:02:53.717Z,37.30
2023-07-18T12:05:21.606Z,37.55
2023-07-18T12:07:50.423Z,37.25
2023-07-18T12:10:19.623Z,37.47
2023-07-18T12:12:47.255Z,37.61
2023-07-18T12:15:15.557Z,37.98
2023-07-18T12:17:43.057Z,38.10
2023-07-18T12:20:11.753Z,38.42
2023-07-18T12:22:39.389Z,38.20
2023-07-18T12:25:07.128Z,38.08
2023-07-18T12:27:34.717Z,37.99
2023-07-18T12:30:02.287Z,37.63
2023-07-18T12:32:33.529Z,37.49
2023-07-18T12:35:01.601Z,37.99
2023-07-18T12:37:33.196Z,37.78
2023-07-18T12:40:00.739Z,37.88
2023-07-18T12:42:28.490Z,37.89
2023-07-18T12:44:55.913Z,37.71
2023-07-18T12:47:23.809Z,37.70
2023-07-18T12:52:21.961Z,37.25
2023-07-18T12:54:49.416Z,37.72
2023-07-18T12:57:17.173Z,37.78
2023-07-18T12:59:45.033Z,38.05
2023-07-18T13:02:14.814Z,38.01
2023-07-18T13:04:42.645Z,37.72
2023-07-18T13:07:11.325Z,37.67
2023-07-18T13:09:39.857Z,37.27
2023-07-18T13:12:10.900Z,37.19
2023-07-18T13:14:38.502Z,37.50
2023-07-18T13:17:06.487Z,36.99
2023-07-18T13:19:33.785Z,37.10
2023-07-18T13:22:01.321Z,37.17
2023-07-18T13:24:28.832Z,37.22
2023-07-18T13:26:56.942Z,37.20
2023-07-18T13:29:24.229Z,36.94
2023-07-18T13:31:51.753Z,36.37
2023-07-18T13:34:21.008Z,36.41
2023-07-18T13:36:48.464Z,36.61
2023-07-18T13:39:17.040Z,36.29
2023-07-18T13:41:44.636Z,36.67
2023-07-18T13:44:12.237Z,36.20
2023-07-18T13:46:39.567Z,36.41
2023-07-18T13:49:07.101Z,36.54
2023-07-18T13:51:34.714Z,36.42
2023-07-18T13:54:02.324Z,36.11
2023-07-18T13:56:29.858Z,36.41
2023-07-18T13:58:57.598Z,36.63
2023-07-18T14:01:25.024Z,36.69
2023-07-18T14:03:53.406Z,36.23
2023-07-18T14:06:22.488Z,36.37
2023-07-18T14:08:52.756Z,36.14
2023-07-18T14:11:28.326Z,36.04
2023-07-18T14:14:00.261Z,36.43
2023-07-18T14:16:28.082Z,36.15
2023-07-18T14:18:58.010Z,36.18
2023-07-18T14:21:26.295Z,35.84
2023-07-18T14:24:01.282Z,36.01
2023-07-18T14:26:30.317Z,35.33
2023-07-18T14:28:58.259Z,35.22
2023-07-18T14:31:25.977Z,35.58
2023-07-18T14:34:05.370Z,35.08
2023-07-18T14:36:34.016Z,35.34
2023-07-18T14:39:01.486Z,35.21
2023-07-18T14:41:29.861Z,35.22
2023-07-18T14:43:57.582Z,34.29
2023-07-18T14:46:25.219Z,34.14
2023-07-18T14:48:53.572Z,33.67
2023-07-18T14:51:21.698Z,32.41
2023-07-18T14:53:49.337Z,32.92
2023-07-18T14:56:16.738Z,32.69
2023-07-18T14:58:44.228Z,32.55
2023-07-18T15:01:11.542Z,32.45
2023-07-18T15:03:38.994Z,32.14
2023-07-18T15:06:06.569Z,32.41
2023-07-18T15:08:35.275Z,32.69
2023-07-18T15:11:03.706Z,32.63
2023-07-18T15:13:31.262Z,32.57
2023-07-18T15:15:58.594Z,32.69
2023-07-18T15:18:26.125Z,33.05
2023-07-18T15:20:53.438Z,33.19
2023-07-18T15:23:21.710Z,33.26
2023-07-18T15:25:49.235Z,33.48
2023-07-18T15:28:18.484Z,33.81
2023-07-18T15:30:45.852Z,33.96
2023-07-18T15:33:26.685Z,34.44
2023-07-18T15:35:55.634Z,34.95
2023-07-18T15:38:23.142Z,35.44
2023-07-18T15:40:50.527Z,35.62
2023-07-18T15:43:17.704Z,36.19
2023-07-18T15:45:52.354Z,36.75
2023-07-18T15:48:19.859Z,36.81
2023-07-18T15:50:48.693Z,37.00
2023-07-18T15:53:16.341Z,37.28
2023-07-18T15:55:44.119Z,37.29
2023-07-18T15:58:11.539Z,37.65
2023-07-18T16:00:39.668Z,37.62
2023-07-18T16:03:10.141Z,37.39
2023-07-18T16:05:37.839Z,37.41
2023-07-18T16:08:05.441Z,37.17
2023-07-18T16:10:32.840Z,37.49
2023-07-18T16:13:00.252Z,37.06
2023-07-18T16:15:27.616Z,37.50
2023-07-18T16:17:54.873Z,37.13
2023-07-18T16:20:22.151Z,37.55
2023-07-18T16:22:50.402Z,38.05
2023-07-18T16:25:17.917Z,37.78
2023-07-18T16:27:48.008Z,37.98
2023-07-18T16:30:15.654Z,39.20
2023-07-18T16:32:43.299Z,39.02
2023-07-18T16:35:10.843Z,39.70
2023-07-18T16:37:38.275Z,40.54
2023-07-18T16:40:06.776Z,40.54
2023-07-18T16:42:34.339Z,41.11
2023-07-18T16:45:01.838Z,40.72
2023-07-18T16:47:32.760Z,40.99
2023-07-18T16:50:01.645Z,41.43
2023-07-18T16:52:32.325Z,41.36
2023-07-18T16:54:59.767Z,41.67
2023-07-18T16:57:27.195Z,41.59
2023-07-18T16:59:54.611Z,41.75
2023-07-18T17:02:21.955Z,42.01
2023-07-18T17:04:49.603Z,42.55
2023-07-18T17:07:17.560Z,42.41
2023-07-18T17:09:45.154Z,43.27
2023-07-18T17:12:13.761Z,43.04
2023-07-18T17:14:41.064Z,42.91
2023-07-18T17:17:08.832Z,43.36
2023-07-18T17:19:48.225Z,43.50
2023-07-18T17:22:23.542Z,44.64
2023-07-18T17:24:52.078Z,44.76
2023-07-18T17:27:19.617Z,45.55
2023-07-18T17:29:46.937Z,45.74
2023-07-18T17:32:14.586Z,46.49
2023-07-18T17:34:42.461Z,46.20
2023-07-18T17:37:09.761Z,47.00
2023-07-18T17:39:37.386Z,46.97
2023-07-18T17:42:09.743Z,47.40
2023-07-18T17:44:37.633Z,47.51
2023-07-18T17:47:05.550Z,47.52
2023-07-18T17:49:32.972Z,47.96
2023-07-18T17:52:00.218Z,49.03
2023-07-18T17:54:29.045Z,49.54
2023-07-18T17:56:56.431Z,49.85
2023-07-18T17:59:23.995Z,50.42
2023-07-18T18:01:51.394Z,50.92
2023-07-18T18:04:19.574Z,51.09
2023-07-18T18:06:48.285Z,50.53
2023-07-18T18:09:15.508Z,50.67
2023-07-18T18:11:42.843Z,50.84
2023-07-18T18:14:10.162Z,51.94
2023-07-18T18:16:37.697Z,52.35
2023-07-18T18:19:04.902Z,52.49
2023-07-18T18:21:33.372Z,53.01
2023-07-18T18:24:00.680Z,53.14
2023-07-18T18:26:28.169Z,53.17
2023-07-18T18:28:56.105Z,53.71
2023-07-18T18:31:23.969Z,53.44
2023-07-18T18:33:51.953Z,53.65
2023-07-18T18:36:24.212Z,55.42
2023-07-18T18:38:52.697Z,55.20
2023-07-18T18:41:21.533Z,55.78
2023-07-18T18:43:50.837Z,56.53
2023-07-18T18:46:18.644Z,55.33
2023-07-18T18:48:46.074Z,55.15
2023-07-18T18:51:13.531Z,54.69
2023-07-18T18:53:40.926Z,54.69
2023-07-18T18:56:08.620Z,55.49
2023-07-18T18:58:36.801Z,55.59
2023-07-18T19:01:07.437Z,55.75
2023-07-18T19:03:36.000Z,55.67
2023-07-18T19:06:03.691Z,56.80
2023-07-18T19:08:31.038Z,56.60
2023-07-18T19:11:07.390Z,55.85
2023-07-18T19:13:37.215Z,55.62
2023-07-18T19:16:05.132Z,55.87
2023-07-18T19:18:32.453Z,55.23
2023-07-18T19:21:00.004Z,55.01
2023-07-18T19:23:27.642Z,55.61
2023-07-18T19:25:56.410Z,55.03
2023-07-18T19:28:24.681Z,55.57
2023-07-18T19:30:52.167Z,55.20
2023-07-18T19:33:19.404Z,55.38
2023-07-18T19:35:46.828Z,56.08
2023-07-18T19:38:14.190Z,57.45
2023-07-18T19:40:42.482Z,57.59
2023-07-18T19:43:10.321Z,56.64
2023-07-18T19:45:37.688Z,58.07
2023-07-18T19:48:05.738Z,57.49
2023-07-18T19:50:33.233Z,57.09
2023-07-18T19:53:00.862Z,57.46
2023-07-18T19:55:28.635Z,57.13
2023-07-18T19:57:56.950Z,57.91
2023-07-18T20:00:24.559Z,58.64
2023-07-18T20:02:51.920Z,58.11
2023-07-18T20:05:19.257Z,58.40
2023-07-18T20:07:46.770Z,58.39
2023-07-18T20:10:14.353Z,58.20
2023-07-18T20:12:41.709Z,57.33
2023-07-18T20:15:11.689Z,59.68
2023-07-18T20:17:39.066Z,57.59
2023-07-18T20:20:07.508Z,58.24
2023-07-18T20:22:34.867Z,58.44
2023-07-18T20:25:02.160Z,59.95
2023-07-18T20:27:36.995Z,58.71
2023-07-18T20:30:05.815Z,58.43
2023-07-18T20:32:36.532Z,60.40
2023-07-18T20:35:04.125Z,59.06
2023-07-18T20:37:34.155Z,59.00
2023-07-18T20:40:05.626Z,58.89
2023-07-18T20:42:36.644Z,60.04
2023-07-18T20:45:06.202Z,60.70
2023-07-18T20:47:36.387Z,60.32
2023-07-18T20:50:05.033Z,59.31
2023-07-18T20:52:32.628Z,60.51
2023-07-18T20:55:00.062Z,59.17
2023-07-18T20:57:27.411Z,59.27
2023-07-18T20:59:54.810Z,61.00
2023-07-18T21:02:22.260Z,59.86
2023-07-18T21:04:49.966Z,59.65
2023-07-18T21:07:17.521Z,60.46
2023-07-18T21:09:45.528Z,60.29
2023-07-18T21:12:12.767Z,59.72
2023-07-18T21:14:40.222Z,59.05
2023-07-18T21:17:07.461Z,59.11
2023-07-18T21:19:34.688Z,60.18
2023-07-18T21:22:02.321Z,59.43
2023-07-18T21:24:29.661Z,58.71
2023-07-18T21:26:57.597Z,59.53
2023-07-18T21:29:25.467Z,58.66
2023-07-18T21:31:55.723Z,59.70
2023-07-18T21:34:24.532Z,58.64
2023-07-18T21:36:52.103Z,58.12
2023-07-18T21:39:19.427Z,57.69
2023-07-18T21:41:46.795Z,57.44
2023-07-18T21:44:14.312Z,58.24
2023-07-18T21:46:41.722Z,58.33
2023-07-18T21:49:10.184Z,58.73
2023-07-18T21:51:41.342Z,59.81
2023-07-18T21:54:10.410Z,58.62
2023-07-18T21:56:37.835Z,57.98
2023-07-18T21:59:05.250Z,57.82
2023-07-18T22:01:32.722Z,57.06
2023-07-18T22:04:00.401Z,57.88
2023-07-18T22:06:27.832Z,57.19
2023-07-18T22:08:55.357Z,56.62
2023-07-18T22:11:23.039Z,57.25
2023-07-18T22:13:53.606Z,57.07
2023-07-18T22:16:21.016Z,57.16
2023-07-18T22:18:48.544Z,56.37
2023-07-18T22:21:16.307Z,56.92
2023-07-18T22:23:43.678Z,57.54
2023-07-18T22:26:14.551Z,56.99
2023-07-18T22:28:43.719Z,57.63
2023-07-18T22:31:13.290Z,57.15
2023-07-18T22:33:41.303Z,56.94
2023-07-18T22:36:09.377Z,57.71
2023-07-18T22:38:37.058Z,57.75
2023-07-18T22:41:04.641Z,58.14
2023-07-18T22:43:32.160Z,58.74
2023-07-18T22:45:59.449Z,58.45
2023-07-18T22:48:27.091Z,58.06
2023-07-18T22:50:54.335Z,59.04
2023-07-18T22:53:21.983Z,58.35
2023-07-18T22:55:49.839Z,59.44
2023-07-18T22:58:17.925Z,59.41
2023-07-18T23:00:45.227Z,59.94
2023-07-18T23:03:13.822Z,60.48
2023-07-18T23:05:41.719Z,59.01
2023-07-18T23:08:09.139Z,58.60
2023-07-18T23:10:36.429Z,58.83
2023-07-18T23:13:03.869Z,59.66
2023-07-18T23:15:31.431Z,59.17
2023-07-18T23:17:59.098Z,60.13
2023-07-18T23:20:26.552Z,60.27
2023-07-18T23:22:54.600Z,60.77
2023-07-18T23:25:22.083Z,59.66
2023-07-18T23:27:49.580Z,60.12
2023-07-18T23:30:17.100Z,61.21
2023-07-18T23:32:44.738Z,60.88
2023-07-18T23:35:12.344Z,61.29
2023-07-18T23:37:39.988Z,61.96
2023-07-18T23:40:08.202Z,62.28
2023-07-18T23:42:35.542Z,62.45
2023-07-18T23:45:02.866Z,60.73
2023-07-18T23:47:31.759Z,61.20
2023-07-18T23:49:59.745Z,62.28
2023-07-18T23:52:27.439Z,62.18
2023-07-18T23:54:54.814Z,62.69
2023-07-18T23:57:23.143Z,63.50
2023-07-18T23:59:50.792Z,62.49
